sensor_id;sensor_type;location;lat;lon;timestamp;P1;durP1;ratioP1;P2;durP2;ratioP2
76393;SDS011;65216;51.090;-115.352;2024-02-23T00:02:11;10.80;;;1.20;;
76393;SDS011;65216;51.090;-115.352;2024-02-23T00:04:38;6.40;;;0.70;;
76393;SDS011;65216;51.090;-115.352;2024-02-23T00:07:04;6.80;;;1.00;;
76393;SDS011;65216;51.090;-115.352;2024-02-23T00:09:31;9.80;;;1.30;;
76393;SDS011;65216;51.090;-115.352;2024-02-23T00:11:58;5.00;;;0.80;;
76393;SDS011;65216;51.090;-115.352;2024-02-23T00:14:25;13.00;;;1.30;;
76393;SDS011;65216;51.090;-115.352;2024-02-23T00:16:54;7.50;;;0.80;;
76393;SDS011;65216;51.090;-115.352;2024-02-23T00:19:22;7.50;;;0.90;;
76393;SDS011;65216;51.090;-115.352;2024-02-23T00:21:50;8.20;;;1.10;;
76393;SDS011;65216;51.090;-115.352;2024-02-23T00:24:19;8.70;;;1.00;;
76393;SDS011;65216;51.090;-115.352;2024-02-23T00:26:49;9.80;;;1.00;;
76393;SDS011;65216;51.090;-115.352;2024-02-23T00:29:17;10.10;;;1.20;;
76393;SDS011;65216;51.090;-115.352;2024-02-23T00:31:47;11.60;;;1.50;;
76393;SDS011;65216;51.090;-115.352;2024-02-23T00:34:14;8.30;;;1.00;;
76393;SDS011;65216;51.090;-115.352;2024-02-23T00:36:42;9.80;;;1.10;;
76393;SDS011;65216;51.090;-115.352;2024-02-23T00:39:14;6.50;;;0.90;;
76393;SDS011;65216;51.090;-115.352;2024-02-23T00:41:41;12.30;;;1.20;;
76393;SDS011;65216;51.090;-115.352;2024-02-23T00:44:09;13.30;;;1.10;;
76393;SDS011;65216;51.090;-115.352;2024-02-23T00:46:38;7.60;;;1.20;;
76393;SDS011;65216;51.090;-115.352;2024-02-23T00:49:06;10.30;;;1.00;;
76393;SDS011;65216;51.090;-115.352;2024-02-23T00:51:33;11.60;;;1.30;;
76393;SDS011;65216;51.090;-115.352;2024-02-23T00:53:59;7.50;;;1.50;;
76393;SDS011;65216;51.090;-115.352;2024-02-23T00:56:26;5.50;;;1.00;;
76393;SDS011;65216;51.090;-115.352;2024-02-23T00:58:53;13.20;;;2.00;;
76393;SDS011;65216;51.090;-115.352;2024-02-23T01:01:20;10.10;;;0.90;;
76393;SDS011;65216;51.090;-115.352;2024-02-23T01:03:47;14.30;;;1.50;;
76393;SDS011;65216;51.090;-115.352;2024-02-23T01:06:13;8.30;;;1.10;;
76393;SDS011;65216;51.090;-115.352;2024-02-23T01:08:40;11.80;;;1.20;;
76393;SDS011;65216;51.090;-115.352;2024-02-23T01:11:07;10.80;;;1.30;;
76393;SDS011;65216;51.090;-115.352;2024-02-23T01:13:34;7.80;;;1.10;;
76393;SDS011;65216;51.090;-115.352;2024-02-23T01:16:01;10.80;;;1.00;;
76393;SDS011;65216;51.090;-115.352;2024-02-23T01:18:28;9.30;;;1.00;;
76393;SDS011;65216;51.090;-115.352;2024-02-23T01:20:58;9.20;;;1.20;;
76393;SDS011;65216;51.090;-115.352;2024-02-23T01:23:25;5.40;;;1.00;;
76393;SDS011;65216;51.090;-115.352;2024-02-23T01:25:52;10.50;;;1.50;;
76393;SDS011;65216;51.090;-115.352;2024-02-23T01:28:19;9.60;;;1.00;;
76393;SDS011;65216;51.090;-115.352;2024-02-23T01:30:48;7.00;;;1.00;;
76393;SDS011;65216;51.090;-115.352;2024-02-23T01:33:14;12.60;;;1.00;;
76393;SDS011;65216;51.090;-115.352;2024-02-23T01:35:41;7.90;;;0.70;;
76393;SDS011;65216;51.090;-115.352;2024-02-23T01:38:08;13.40;;;1.00;;
76393;SDS011;65216;51.090;-115.352;2024-02-23T01:40:35;8.60;;;1.00;;
76393;SDS011;65216;51.090;-115.352;2024-02-23T01:45:32;10.20;;;1.70;;
76393;SDS011;65216;51.090;-115.352;2024-02-23T01:48:02;8.00;;;1.00;;
76393;SDS011;65216;51.090;-115.352;2024-02-23T01:50:30;9.20;;;1.00;;
76393;SDS011;65216;51.090;-115.352;2024-02-23T01:53:03;7.40;;;1.10;;
76393;SDS011;65216;51.090;-115.352;2024-02-23T01:55:34;5.80;;;1.00;;
76393;SDS011;65216;51.090;-115.352;2024-02-23T01:58:01;10.30;;;1.00;;
76393;SDS011;65216;51.090;-115.352;2024-02-23T02:00:30;8.00;;;1.20;;
76393;SDS011;65216;51.090;-115.352;2024-02-23T02:02:57;7.90;;;1.00;;
76393;SDS011;65216;51.090;-115.352;2024-02-23T02:05:27;9.50;;;0.90;;
76393;SDS011;65216;51.090;-115.352;2024-02-23T02:07:55;12.10;;;1.30;;
76393;SDS011;65216;51.090;-115.352;2024-02-23T02:10:27;18.20;;;1.40;;
76393;SDS011;65216;51.090;-115.352;2024-02-23T02:12:53;10.40;;;1.20;;
76393;SDS011;65216;51.090;-115.352;2024-02-23T02:15:20;11.80;;;1.40;;
76393;SDS011;65216;51.090;-115.352;2024-02-23T02:17:48;8.80;;;1.20;;
76393;SDS011;65216;51.090;-115.352;2024-02-23T02:20:18;8.40;;;1.20;;
76393;SDS011;65216;51.090;-115.352;2024-02-23T02:22:52;15.30;;;1.30;;
76393;SDS011;65216;51.090;-115.352;2024-02-23T02:25:19;15.20;;;1.30;;
76393;SDS011;65216;51.090;-115.352;2024-02-23T02:27:46;11.70;;;1.20;;
76393;SDS011;65216;51.090;-115.352;2024-02-23T02:30:13;9.70;;;1.30;;
76393;SDS011;65216;51.090;-115.352;2024-02-23T02:32:43;12.50;;;1.20;;
76393;SDS011;65216;51.090;-115.352;2024-02-23T02:35:11;9.60;;;1.70;;
76393;SDS011;65216;51.090;-115.352;2024-02-23T02:37:41;11.00;;;1.10;;
76393;SDS011;65216;51.090;-115.352;2024-02-23T02:40:08;17.00;;;1.80;;
76393;SDS011;65216;51.090;-115.352;2024-02-23T02:42:35;14.40;;;1.50;;
76393;SDS011;65216;51.090;-115.352;2024-02-23T02:45:02;10.60;;;1.20;;
76393;SDS011;65216;51.090;-115.352;2024-02-23T02:47:29;10.10;;;1.30;;
76393;SDS011;65216;51.090;-115.352;2024-02-23T02:49:56;16.40;;;1.50;;
76393;SDS011;65216;51.090;-115.352;2024-02-23T02:52:24;16.20;;;1.60;;
76393;SDS011;65216;51.090;-115.352;2024-02-23T02:54:51;12.00;;;1.20;;
76393;SDS011;65216;51.090;-115.352;2024-02-23T02:57:17;10.80;;;1.30;;
76393;SDS011;65216;51.090;-115.352;2024-02-23T02:59:49;14.70;;;1.60;;
76393;SDS011;65216;51.090;-115.352;2024-02-23T03:02:18;12.40;;;1.40;;
76393;SDS011;65216;51.090;-115.352;2024-02-23T03:04:49;10.60;;;1.10;;
76393;SDS011;65216;51.090;-115.352;2024-02-23T03:07:19;11.60;;;1.50;;
76393;SDS011;65216;51.090;-115.352;2024-02-23T03:09:46;16.80;;;1.60;;
76393;SDS011;65216;51.090;-115.352;2024-02-23T03:12:12;12.40;;;1.50;;
76393;SDS011;65216;51.090;-115.352;2024-02-23T03:14:39;13.50;;;1.40;;
76393;SDS011;65216;51.090;-115.352;2024-02-23T03:17:09;10.70;;;1.70;;
76393;SDS011;65216;51.090;-115.352;2024-02-23T03:19:36;14.40;;;1.50;;
76393;SDS011;65216;51.090;-115.352;2024-02-23T03:22:05;19.10;;;1.40;;
76393;SDS011;65216;51.090;-115.352;2024-02-23T03:24:32;18.30;;;2.10;;
76393;SDS011;65216;51.090;-115.352;2024-02-23T03:26:59;18.00;;;2.00;;
76393;SDS011;65216;51.090;-115.352;2024-02-23T03:29:26;12.10;;;1.10;;
76393;SDS011;65216;51.090;-115.352;2024-02-23T03:31:56;15.80;;;1.50;;
76393;SDS011;65216;51.090;-115.352;2024-02-23T03:34:23;16.70;;;1.90;;
76393;SDS011;65216;51.090;-115.352;2024-02-23T03:36:50;17.60;;;2.00;;
76393;SDS011;65216;51.090;-115.352;2024-02-23T03:39:18;16.50;;;1.60;;
76393;SDS011;65216;51.090;-115.352;2024-02-23T03:41:48;7.20;;;1.10;;
76393;SDS011;65216;51.090;-115.352;2024-02-23T03:44:15;13.70;;;1.40;;
76393;SDS011;65216;51.090;-115.352;2024-02-23T03:46:42;15.40;;;2.30;;
76393;SDS011;65216;51.090;-115.352;2024-02-23T03:49:12;19.10;;;1.60;;
76393;SDS011;65216;51.090;-115.352;2024-02-23T03:51:39;18.60;;;1.50;;
76393;SDS011;65216;51.090;-115.352;2024-02-23T03:54:06;15.50;;;1.80;;
76393;SDS011;65216;51.090;-115.352;2024-02-23T03:56:42;17.60;;;1.60;;
76393;SDS011;65216;51.090;-115.352;2024-02-23T03:59:09;14.20;;;1.50;;
76393;SDS011;65216;51.090;-115.352;2024-02-23T04:01:39;15.30;;;1.60;;
76393;SDS011;65216;51.090;-115.352;2024-02-23T04:04:06;17.40;;;1.60;;
76393;SDS011;65216;51.090;-115.352;2024-02-23T04:06:33;15.50;;;1.80;;
76393;SDS011;65216;51.090;-115.352;2024-02-23T04:09:01;14.00;;;1.60;;
76393;SDS011;65216;51.090;-115.352;2024-02-23T04:11:32;11.70;;;1.20;;
76393;SDS011;65216;51.090;-115.352;2024-02-23T04:13:59;10.40;;;1.00;;
76393;SDS011;65216;51.090;-115.352;2024-02-23T04:16:26;13.80;;;1.40;;
76393;SDS011;65216;51.090;-115.352;2024-02-23T04:18:54;13.40;;;1.00;;
76393;SDS011;65216;51.090;-115.352;2024-02-23T04:21:24;7.70;;;1.20;;
76393;SDS011;65216;51.090;-115.352;2024-02-23T04:23:51;12.70;;;1.30;;
76393;SDS011;65216;51.090;-115.352;2024-02-23T04:26:18;15.80;;;1.60;;
76393;SDS011;65216;51.090;-115.352;2024-02-23T04:28:45;10.80;;;1.20;;
76393;SDS011;65216;51.090;-115.352;2024-02-23T04:31:12;16.10;;;1.70;;
76393;SDS011;65216;51.090;-115.352;2024-02-23T04:33:39;14.40;;;1.70;;
76393;SDS011;65216;51.090;-115.352;2024-02-23T04:36:06;10.40;;;1.30;;
76393;SDS011;65216;51.090;-115.352;2024-02-23T04:38:33;11.60;;;1.30;;
76393;SDS011;65216;51.090;-115.352;2024-02-23T04:41:03;9.00;;;1.00;;
76393;SDS011;65216;51.090;-115.352;2024-02-23T04:43:31;13.10;;;1.70;;
76393;SDS011;65216;51.090;-115.352;2024-02-23T04:45:57;10.80;;;1.20;;
76393;SDS011;65216;51.090;-115.352;2024-02-23T04:48:24;10.40;;;1.20;;
76393;SDS011;65216;51.090;-115.352;2024-02-23T04:50:51;6.70;;;1.30;;
76393;SDS011;65216;51.090;-115.352;2024-02-23T04:53:18;7.80;;;1.00;;
76393;SDS011;65216;51.090;-115.352;2024-02-23T04:55:45;5.50;;;0.80;;
76393;SDS011;65216;51.090;-115.352;2024-02-23T04:58:14;7.60;;;1.10;;
76393;SDS011;65216;51.090;-115.352;2024-02-23T05:00:41;9.90;;;0.90;;
76393;SDS011;65216;51.090;-115.352;2024-02-23T05:03:08;8.90;;;1.20;;
76393;SDS011;65216;51.090;-115.352;2024-02-23T05:05:35;8.00;;;0.90;;
76393;SDS011;65216;51.090;-115.352;2024-02-23T05:08:02;6.70;;;1.00;;
76393;SDS011;65216;51.090;-115.352;2024-02-23T05:10:32;7.30;;;0.70;;
76393;SDS011;65216;51.090;-115.352;2024-02-23T05:12:59;10.10;;;0.60;;
76393;SDS011;65216;51.090;-115.352;2024-02-23T05:15:33;4.70;;;0.70;;
76393;SDS011;65216;51.090;-115.352;2024-02-23T05:18:00;5.40;;;0.50;;
76393;SDS011;65216;51.090;-115.352;2024-02-23T05:20:27;5.40;;;0.60;;
76393;SDS011;65216;51.090;-115.352;2024-02-23T05:22:58;2.10;;;0.50;;
76393;SDS011;65216;51.090;-115.352;2024-02-23T05:25:24;3.20;;;0.60;;
76393;SDS011;65216;51.090;-115.352;2024-02-23T05:27:54;2.20;;;0.50;;
76393;SDS011;65216;51.090;-115.352;2024-02-23T05:30:21;3.10;;;0.50;;
76393;SDS011;65216;51.090;-115.352;2024-02-23T05:32:48;2.20;;;0.50;;
76393;SDS011;65216;51.090;-115.352;2024-02-23T05:35:17;1.50;;;0.30;;
76393;SDS011;65216;51.090;-115.352;2024-02-23T05:37:44;6.10;;;0.60;;
76393;SDS011;65216;51.090;-115.352;2024-02-23T05:40:11;2.40;;;0.60;;
76393;SDS011;65216;51.090;-115.352;2024-02-23T05:42:38;4.10;;;0.50;;
76393;SDS011;65216;51.090;-115.352;2024-02-23T05:45:10;3.30;;;0.70;;
76393;SDS011;65216;51.090;-115.352;2024-02-23T05:47:38;4.90;;;0.50;;
76393;SDS011;65216;51.090;-115.352;2024-02-23T05:50:05;3.40;;;0.60;;
76393;SDS011;65216;51.090;-115.352;2024-02-23T05:52:34;3.30;;;0.40;;
76393;SDS011;65216;51.090;-115.352;2024-02-23T05:55:03;2.50;;;0.40;;
76393;SDS011;65216;51.090;-115.352;2024-02-23T05:57:30;3.40;;;0.30;;
76393;SDS011;65216;51.090;-115.352;2024-02-23T05:59:57;4.20;;;0.70;;
76393;SDS011;65216;51.090;-115.352;2024-02-23T06:02:24;3.40;;;0.60;;
76393;SDS011;65216;51.090;-115.352;2024-02-23T06:04:51;2.50;;;0.50;;
76393;SDS011;65216;51.090;-115.352;2024-02-23T06:07:18;5.10;;;0.50;;
76393;SDS011;65216;51.090;-115.352;2024-02-23T06:09:47;5.80;;;0.60;;
76393;SDS011;65216;51.090;-115.352;2024-02-23T06:12:14;1.60;;;0.50;;
76393;SDS011;65216;51.090;-115.352;2024-02-23T06:14:41;2.90;;;0.60;;
76393;SDS011;65216;51.090;-115.352;2024-02-23T06:17:10;9.70;;;1.20;;
76393;SDS011;65216;51.090;-115.352;2024-02-23T06:19:39;5.40;;;0.60;;
76393;SDS011;65216;51.090;-115.352;2024-02-23T06:22:08;5.20;;;1.20;;
76393;SDS011;65216;51.090;-115.352;2024-02-23T06:24:38;3.40;;;0.70;;
76393;SDS011;65216;51.090;-115.352;2024-02-23T06:27:04;4.50;;;0.80;;
76393;SDS011;65216;51.090;-115.352;2024-02-23T06:29:31;3.90;;;0.50;;
76393;SDS011;65216;51.090;-115.352;2024-02-23T06:31:58;5.90;;;0.80;;
76393;SDS011;65216;51.090;-115.352;2024-02-23T06:34:27;2.50;;;0.40;;
76393;SDS011;65216;51.090;-115.352;2024-02-23T06:36:54;2.00;;;0.60;;
76393;SDS011;65216;51.090;-115.352;2024-02-23T06:39:22;2.50;;;0.50;;
76393;SDS011;65216;51.090;-115.352;2024-02-23T06:41:52;2.40;;;0.50;;
76393;SDS011;65216;51.090;-115.352;2024-02-23T06:44:19;3.00;;;0.50;;
76393;SDS011;65216;51.090;-115.352;2024-02-23T06:46:46;4.80;;;0.50;;
76393;SDS011;65216;51.090;-115.352;2024-02-23T06:49:15;4.50;;;0.50;;
76393;SDS011;65216;51.090;-115.352;2024-02-23T06:51:42;3.10;;;0.70;;
76393;SDS011;65216;51.090;-115.352;2024-02-23T06:54:09;2.40;;;0.50;;
76393;SDS011;65216;51.090;-115.352;2024-02-23T06:56:36;1.00;;;0.40;;
76393;SDS011;65216;51.090;-115.352;2024-02-23T06:59:03;1.00;;;0.30;;
76393;SDS011;65216;51.090;-115.352;2024-02-23T07:01:29;1.50;;;0.30;;
76393;SDS011;65216;51.090;-115.352;2024-02-23T07:03:57;1.50;;;0.30;;
76393;SDS011;65216;51.090;-115.352;2024-02-23T07:06:24;1.50;;;0.30;;
76393;SDS011;65216;51.090;-115.352;2024-02-23T07:09:00;0.40;;;0.20;;
76393;SDS011;65216;51.090;-115.352;2024-02-23T07:11:27;0.50;;;0.20;;
76393;SDS011;65216;51.090;-115.352;2024-02-23T07:13:53;2.70;;;0.40;;
76393;SDS011;65216;51.090;-115.352;2024-02-23T07:16:20;0.40;;;0.20;;
76393;SDS011;65216;51.090;-115.352;2024-02-23T07:18:47;1.30;;;0.20;;
76393;SDS011;65216;51.090;-115.352;2024-02-23T07:21:19;0.70;;;0.30;;
76393;SDS011;65216;51.090;-115.352;2024-02-23T07:26:13;0.30;;;0.10;;
76393;SDS011;65216;51.090;-115.352;2024-02-23T07:28:40;1.30;;;0.10;;
76393;SDS011;65216;51.090;-115.352;2024-02-23T07:31:06;0.90;;;0.30;;
76393;SDS011;65216;51.090;-115.352;2024-02-23T07:33:37;0.50;;;0.10;;
76393;SDS011;65216;51.090;-115.352;2024-02-23T07:36:06;1.30;;;0.20;;
76393;SDS011;65216;51.090;-115.352;2024-02-23T07:38:42;0.50;;;0.10;;
76393;SDS011;65216;51.090;-115.352;2024-02-23T07:41:12;1.50;;;0.20;;
76393;SDS011;65216;51.090;-115.352;2024-02-23T07:43:39;0.20;;;0.00;;
76393;SDS011;65216;51.090;-115.352;2024-02-23T07:46:06;0.30;;;0.10;;
76393;SDS011;65216;51.090;-115.352;2024-02-23T07:48:36;0.10;;;0.10;;
76393;SDS011;65216;51.090;-115.352;2024-02-23T07:51:04;0.80;;;0.10;;
76393;SDS011;65216;51.090;-115.352;2024-02-23T07:53:31;0.10;;;0.10;;
76393;SDS011;65216;51.090;-115.352;2024-02-23T07:55:59;0.20;;;0.10;;
76393;SDS011;65216;51.090;-115.352;2024-02-23T07:58:28;0.10;;;0.10;;
76393;SDS011;65216;51.090;-115.352;2024-02-23T08:00:55;0.00;;;0.00;;
76393;SDS011;65216;51.090;-115.352;2024-02-23T08:03:22;0.70;;;0.20;;
76393;SDS011;65216;51.090;-115.352;2024-02-23T08:05:49;0.50;;;0.10;;
76393;SDS011;65216;51.090;-115.352;2024-02-23T08:08:18;0.30;;;0.00;;
76393;SDS011;65216;51.090;-115.352;2024-02-23T08:10:50;0.20;;;0.00;;
76393;SDS011;65216;51.090;-115.352;2024-02-23T08:13:17;0.10;;;0.10;;
76393;SDS011;65216;51.090;-115.352;2024-02-23T08:15:46;0.10;;;0.10;;
76393;SDS011;65216;51.090;-115.352;2024-02-23T08:18:12;0.00;;;0.00;;
76393;SDS011;65216;51.090;-115.352;2024-02-23T08:20:39;0.30;;;0.10;;
76393;SDS011;65216;51.090;-115.352;2024-02-23T08:23:07;0.00;;;0.00;;
76393;SDS011;65216;51.090;-115.352;2024-02-23T08:25:35;0.20;;;0.00;;
76393;SDS011;65216;51.090;-115.352;2024-02-23T08:28:02;0.20;;;0.10;;
76393;SDS011;65216;51.090;-115.352;2024-02-23T08:30:29;1.00;;;0.10;;
76393;SDS011;65216;51.090;-115.352;2024-02-23T08:32:59;0.10;;;0.00;;
76393;SDS011;65216;51.090;-115.352;2024-02-23T08:35:26;0.10;;;0.00;;
76393;SDS011;65216;51.090;-115.352;2024-02-23T08:37:56;0.70;;;0.00;;
76393;SDS011;65216;51.090;-115.352;2024-02-23T08:40:26;0.00;;;0.00;;
76393;SDS011;65216;51.090;-115.352;2024-02-23T08:42:52;0.00;;;0.00;;
76393;SDS011;65216;51.090;-115.352;2024-02-23T08:45:19;0.00;;;0.00;;
76393;SDS011;65216;51.090;-115.352;2024-02-23T08:47:46;0.10;;;0.10;;
76393;SDS011;65216;51.090;-115.352;2024-02-23T08:50:16;0.00;;;0.00;;
76393;SDS011;65216;51.090;-115.352;2024-02-23T08:52:43;0.00;;;0.00;;
76393;SDS011;65216;51.090;-115.352;2024-02-23T08:55:09;0.00;;;0.00;;
76393;SDS011;65216;51.090;-115.352;2024-02-23T08:57:37;0.20;;;0.00;;
76393;SDS011;65216;51.090;-115.352;2024-02-23T09:00:05;0.30;;;0.10;;
76393;SDS011;65216;51.090;-115.352;2024-02-23T09:02:37;0.10;;;0.00;;
76393;SDS011;65216;51.090;-115.352;2024-02-23T09:05:05;0.00;;;0.00;;
76393;SDS011;65216;51.090;-115.352;2024-02-23T09:07:32;0.10;;;0.00;;
76393;SDS011;65216;51.090;-115.352;2024-02-23T09:09:59;0.00;;;0.00;;
76393;SDS011;65216;51.090;-115.352;2024-02-23T09:12:26;0.10;;;0.00;;
76393;SDS011;65216;51.090;-115.352;2024-02-23T09:14:55;0.00;;;0.00;;
76393;SDS011;65216;51.090;-115.352;2024-02-23T09:17:23;0.00;;;0.00;;
76393;SDS011;65216;51.090;-115.352;2024-02-23T09:19:51;0.40;;;0.10;;
76393;SDS011;65216;51.090;-115.352;2024-02-23T09:22:21;0.10;;;0.10;;
76393;SDS011;65216;51.090;-115.352;2024-02-23T09:24:48;0.20;;;0.00;;
76393;SDS011;65216;51.090;-115.352;2024-02-23T09:27:15;0.20;;;0.00;;
76393;SDS011;65216;51.090;-115.352;2024-02-23T09:29:42;0.30;;;0.10;;
76393;SDS011;65216;51.090;-115.352;2024-02-23T09:32:11;0.00;;;0.00;;
76393;SDS011;65216;51.090;-115.352;2024-02-23T09:34:38;0.20;;;0.20;;
76393;SDS011;65216;51.090;-115.352;2024-02-23T09:37:07;0.30;;;0.10;;
76393;SDS011;65216;51.090;-115.352;2024-02-23T09:39:33;0.00;;;0.00;;
76393;SDS011;65216;51.090;-115.352;2024-02-23T09:42:01;0.00;;;0.00;;
76393;SDS011;65216;51.090;-115.352;2024-02-23T09:44:33;0.00;;;0.00;;
76393;SDS011;65216;51.090;-115.352;2024-02-23T09:47:01;0.00;;;0.00;;
76393;SDS011;65216;51.090;-115.352;2024-02-23T09:49:40;0.00;;;0.00;;
76393;SDS011;65216;51.090;-115.352;2024-02-23T09:52:08;0.30;;;0.10;;
76393;SDS011;65216;51.090;-115.352;2024-02-23T09:54:38;0.30;;;0.10;;
76393;SDS011;65216;51.090;-115.352;2024-02-23T09:57:07;0.00;;;0.00;;
76393;SDS011;65216;51.090;-115.352;2024-02-23T09:59:35;0.20;;;0.10;;
76393;SDS011;65216;51.090;-115.352;2024-02-23T10:02:09;0.00;;;0.00;;
76393;SDS011;65216;51.090;-115.352;2024-02-23T10:04:43;0.00;;;0.00;;
76393;SDS011;65216;51.090;-115.352;2024-02-23T10:07:12;0.10;;;0.10;;
76393;SDS011;65216;51.090;-115.352;2024-02-23T10:09:43;0.00;;;0.00;;
76393;SDS011;65216;51.090;-115.352;2024-02-23T10:12:13;0.30;;;0.00;;
76393;SDS011;65216;51.090;-115.352;2024-02-23T10:14:43;0.30;;;0.10;;
76393;SDS011;65216;51.090;-115.352;2024-02-23T10:17:10;0.00;;;0.00;;
76393;SDS011;65216;51.090;-115.352;2024-02-23T10:19:40;0.20;;;0.10;;
76393;SDS011;65216;51.090;-115.352;2024-02-23T10:22:06;0.00;;;0.00;;
76393;SDS011;65216;51.090;-115.352;2024-02-23T10:24:33;0.10;;;0.10;;
76393;SDS011;65216;51.090;-115.352;2024-02-23T10:27:03;0.20;;;0.00;;
76393;SDS011;65216;51.090;-115.352;2024-02-23T10:29:30;0.20;;;0.10;;
76393;SDS011;65216;51.090;-115.352;2024-02-23T10:31:57;0.00;;;0.00;;
76393;SDS011;65216;51.090;-115.352;2024-02-23T10:34:27;0.40;;;0.20;;
76393;SDS011;65216;51.090;-115.352;2024-02-23T10:37:00;0.00;;;0.00;;
76393;SDS011;65216;51.090;-115.352;2024-02-23T10:39:29;0.00;;;0.00;;
76393;SDS011;65216;51.090;-115.352;2024-02-23T10:41:57;0.00;;;0.00;;
76393;SDS011;65216;51.090;-115.352;2024-02-23T10:44:29;0.00;;;0.00;;
76393;SDS011;65216;51.090;-115.352;2024-02-23T10:47:00;0.00;;;0.00;;
76393;SDS011;65216;51.090;-115.352;2024-02-23T10:49:31;0.20;;;0.10;;
76393;SDS011;65216;51.090;-115.352;2024-02-23T10:51:59;0.10;;;0.00;;
76393;SDS011;65216;51.090;-115.352;2024-02-23T10:54:28;0.00;;;0.00;;
76393;SDS011;65216;51.090;-115.352;2024-02-23T10:56:57;0.10;;;0.10;;
76393;SDS011;65216;51.090;-115.352;2024-02-23T10:59:26;0.00;;;0.00;;
76393;SDS011;65216;51.090;-115.352;2024-02-23T11:01:54;0.10;;;0.10;;
76393;SDS011;65216;51.090;-115.352;2024-02-23T11:04:26;0.00;;;0.00;;
76393;SDS011;65216;51.090;-115.352;2024-02-23T11:06:55;0.80;;;0.10;;
76393;SDS011;65216;51.090;-115.352;2024-02-23T11:09:24;0.30;;;0.10;;
76393;SDS011;65216;51.090;-115.352;2024-02-23T11:11:57;0.00;;;0.00;;
76393;SDS011;65216;51.090;-115.352;2024-02-23T11:16:58;0.00;;;0.00;;
76393;SDS011;65216;51.090;-115.352;2024-02-23T11:19:36;0.30;;;0.00;;
76393;SDS011;65216;51.090;-115.352;2024-02-23T11:22:04;0.10;;;0.00;;
76393;SDS011;65216;51.090;-115.352;2024-02-23T11:24:42;0.00;;;0.00;;
76393;SDS011;65216;51.090;-115.352;2024-02-23T11:27:15;0.00;;;0.00;;
76393;SDS011;65216;51.090;-115.352;2024-02-23T11:29:48;0.10;;;0.00;;
76393;SDS011;65216;51.090;-115.352;2024-02-23T11:32:45;0.10;;;0.00;;
76393;SDS011;65216;51.090;-115.352;2024-02-23T11:35:15;0.20;;;0.10;;
76393;SDS011;65216;51.090;-115.352;2024-02-23T11:40:23;0.40;;;0.00;;
76393;SDS011;65216;51.090;-115.352;2024-02-23T11:42:54;0.00;;;0.00;;
76393;SDS011;65216;51.090;-115.352;2024-02-23T11:45:21;0.00;;;0.00;;
76393;SDS011;65216;51.090;-115.352;2024-02-23T11:47:49;0.00;;;0.00;;
76393;SDS011;65216;51.090;-115.352;2024-02-23T11:50:16;0.00;;;0.00;;
76393;SDS011;65216;51.090;-115.352;2024-02-23T11:52:46;0.00;;;0.00;;
76393;SDS011;65216;51.090;-115.352;2024-02-23T11:55:19;0.30;;;0.00;;
76393;SDS011;65216;51.090;-115.352;2024-02-23T11:57:49;0.60;;;0.00;;
76393;SDS011;65216;51.090;-115.352;2024-02-23T12:00:16;0.00;;;0.00;;
76393;SDS011;65216;51.090;-115.352;2024-02-23T12:02:44;0.00;;;0.00;;
76393;SDS011;65216;51.090;-115.352;2024-02-23T12:05:17;0.20;;;0.00;;
76393;SDS011;65216;51.090;-115.352;2024-02-23T12:07:44;0.20;;;0.10;;
76393;SDS011;65216;51.090;-115.352;2024-02-23T12:10:14;0.40;;;0.20;;
76393;SDS011;65216;51.090;-115.352;2024-02-23T12:12:41;0.00;;;0.00;;
76393;SDS011;65216;51.090;-115.352;2024-02-23T12:15:08;0.40;;;0.00;;
76393;SDS011;65216;51.090;-115.352;2024-02-23T12:17:47;0.10;;;0.00;;
76393;SDS011;65216;51.090;-115.352;2024-02-23T12:20:14;0.20;;;0.10;;
76393;SDS011;65216;51.090;-115.352;2024-02-23T12:22:42;0.00;;;0.00;;
76393;SDS011;65216;51.090;-115.352;2024-02-23T12:25:09;0.00;;;0.00;;
76393;SDS011;65216;51.090;-115.352;2024-02-23T12:27:38;0.00;;;0.00;;
76393;SDS011;65216;51.090;-115.352;2024-02-23T12:30:05;0.00;;;0.00;;
76393;SDS011;65216;51.090;-115.352;2024-02-23T12:32:34;1.10;;;0.20;;
76393;SDS011;65216;51.090;-115.352;2024-02-23T12:35:01;0.20;;;0.00;;
76393;SDS011;65216;51.090;-115.352;2024-02-23T12:37:28;0.00;;;0.00;;
76393;SDS011;65216;51.090;-115.352;2024-02-23T12:40:02;0.00;;;0.00;;
76393;SDS011;65216;51.090;-115.352;2024-02-23T12:42:32;0.00;;;0.00;;
76393;SDS011;65216;51.090;-115.352;2024-02-23T12:45:01;0.20;;;0.00;;
76393;SDS011;65216;51.090;-115.352;2024-02-23T12:47:28;0.00;;;0.00;;
76393;SDS011;65216;51.090;-115.352;2024-02-23T12:49:55;0.00;;;0.00;;
76393;SDS011;65216;51.090;-115.352;2024-02-23T12:52:22;0.00;;;0.00;;
76393;SDS011;65216;51.090;-115.352;2024-02-23T12:54:51;0.20;;;0.00;;
76393;SDS011;65216;51.090;-115.352;2024-02-23T12:57:18;0.00;;;0.00;;
76393;SDS011;65216;51.090;-115.352;2024-02-23T12:59:44;0.00;;;0.00;;
76393;SDS011;65216;51.090;-115.352;2024-02-23T13:02:12;0.00;;;0.00;;
76393;SDS011;65216;51.090;-115.352;2024-02-23T13:04:38;0.00;;;0.00;;
76393;SDS011;65216;51.090;-115.352;2024-02-23T13:07:06;0.00;;;0.00;;
76393;SDS011;65216;51.090;-115.352;2024-02-23T13:09:33;0.00;;;0.00;;
76393;SDS011;65216;51.090;-115.352;2024-02-23T13:11:59;0.00;;;0.00;;
76393;SDS011;65216;51.090;-115.352;2024-02-23T13:14:26;0.10;;;0.00;;
76393;SDS011;65216;51.090;-115.352;2024-02-23T13:16:58;0.60;;;0.00;;
76393;SDS011;65216;51.090;-115.352;2024-02-23T13:19:27;0.50;;;0.20;;
76393;SDS011;65216;51.090;-115.352;2024-02-23T13:21:54;0.30;;;0.10;;
76393;SDS011;65216;51.090;-115.352;2024-02-23T13:24:25;0.20;;;0.00;;
76393;SDS011;65216;51.090;-115.352;2024-02-23T13:26:52;0.00;;;0.00;;
76393;SDS011;65216;51.090;-115.352;2024-02-23T13:29:19;0.30;;;0.00;;
76393;SDS011;65216;51.090;-115.352;2024-02-23T13:31:46;0.00;;;0.00;;
76393;SDS011;65216;51.090;-115.352;2024-02-23T13:34:16;1.60;;;0.00;;
76393;SDS011;65216;51.090;-115.352;2024-02-23T13:36:46;0.00;;;0.00;;
76393;SDS011;65216;51.090;-115.352;2024-02-23T13:39:14;0.00;;;0.00;;
76393;SDS011;65216;51.090;-115.352;2024-02-23T13:41:40;0.00;;;0.00;;
76393;SDS011;65216;51.090;-115.352;2024-02-23T13:44:08;0.00;;;0.00;;
76393;SDS011;65216;51.090;-115.352;2024-02-23T13:46:40;0.20;;;0.10;;
76393;SDS011;65216;51.090;-115.352;2024-02-23T13:49:07;0.60;;;0.10;;
76393;SDS011;65216;51.090;-115.352;2024-02-23T13:51:37;0.10;;;0.10;;
76393;SDS011;65216;51.090;-115.352;2024-02-23T13:54:04;0.10;;;0.10;;
76393;SDS011;65216;51.090;-115.352;2024-02-23T13:56:31;0.20;;;0.00;;
76393;SDS011;65216;51.090;-115.352;2024-02-23T13:58:57;0.00;;;0.00;;
76393;SDS011;65216;51.090;-115.352;2024-02-23T14:01:24;0.20;;;0.00;;
76393;SDS011;65216;51.090;-115.352;2024-02-23T14:03:54;0.10;;;0.00;;
76393;SDS011;65216;51.090;-115.352;2024-02-23T14:06:20;0.00;;;0.00;;
76393;SDS011;65216;51.090;-115.352;2024-02-23T14:08:47;0.10;;;0.10;;
76393;SDS011;65216;51.090;-115.352;2024-02-23T14:11:14;0.10;;;0.10;;
76393;SDS011;65216;51.090;-115.352;2024-02-23T14:13:43;0.00;;;0.00;;
76393;SDS011;65216;51.090;-115.352;2024-02-23T14:16:11;0.40;;;0.20;;
76393;SDS011;65216;51.090;-115.352;2024-02-23T14:18:40;0.40;;;0.10;;
76393;SDS011;65216;51.090;-115.352;2024-02-23T14:21:10;0.00;;;0.00;;
76393;SDS011;65216;51.090;-115.352;2024-02-23T14:23:39;0.90;;;0.00;;